Time;durP1;ratioP1;P1;durP2;ratioP2;P2;SDS_P1;SDS_P2;PMS_P1;PMS_P2;Temp;Humidity;BMP_temperature;BMP_pressure;BME280_temperature;BME280_humidity;BME280_pressure;Samples;Min_cycle;Max_cycle;Signal;HPM_P1;HPM_P2
2023/07/30 00:00:36;;;;;;;1999.90;999.90;;;;;;;23.21;53.69;100931.81;5040752;28;20045;-70
2023/07/30 00:03:01;;;;;;;1999.90;999.90;;;;;;;23.39;53.65;100932.50;5056778;28;20067;-71
2023/07/30 00:05:27;;;;;;;1999.90;999.90;;;;;;;22.60;56.04;100939.88;5032080;28;20032;-70
2023/07/30 00:07:53;;;;;;;1999.90;999.90;;;;;;;24.14;51.22;100937.53;5030813;28;20032;-71
2023/07/30 00:10:19;;;;;;;1999.90;999.90;;;;;;;22.86;54.61;100934.78;5056412;28;20081;-71
2023/07/30 00:12:44;;;;;;;1999.90;999.90;;;;;;;23.63;52.44;100940.78;5047386;28;20107;-71
2023/07/30 00:15:10;;;;;;;1999.90;999.90;;;;;;;23.42;54.30;100931.44;5050285;28;20036;-70
2023/07/30 00:17:35;;;;;;;1999.90;999.90;;;;;;;23.91;52.21;100932.84;5065071;28;20380;-70
2023/07/30 00:20:01;;;;;;;1999.90;999.90;;;;;;;23.90;52.58;100937.31;5069149;28;20032;-71
2023/07/30 00:22:26;;;;;;;1999.90;999.90;;;;;;;23.96;51.77;100936.06;5053699;28;20024;-70
2023/07/30 00:24:52;;;;;;;1999.90;999.90;;;;;;;22.84;55.66;100940.22;5045299;28;20035;-71
2023/07/30 00:27:17;;;;;;;1999.90;999.90;;;;;;;22.77;56.30;100946.88;5043174;28;20043;-70
2023/07/30 00:29:43;;;;;;;1999.90;999.90;;;;;;;23.33;56.38;100943.56;5046061;28;20038;-70
2023/07/30 00:32:09;;;;;;;1999.90;999.90;;;;;;;24.51;51.93;100943.09;5036740;28;20028;-71
2023/07/30 00:34:37;;;;;;;1999.90;999.90;;;;;;;24.22;52.32;100943.22;5054624;28;20031;-70
2023/07/30 00:37:03;;;;;;;1999.90;999.90;;;;;;;22.88;56.36;100943.56;5049067;28;20102;-72
2023/07/30 00:39:28;;;;;;;1999.90;999.90;;;;;;;24.03;53.58;100945.41;5067907;28;20033;-71
2023/07/30 00:41:54;;;;;;;1999.90;999.90;;;;;;;24.20;53.53;100950.47;5040771;28;20039;-71
2023/07/30 00:44:19;;;;;;;1999.90;999.90;;;;;;;23.55;54.26;100959.91;5051803;28;20069;-71
2023/07/30 00:46:45;;;;;;;1999.90;999.90;;;;;;;23.86;54.70;100952.66;5053447;28;20052;-71
2023/07/30 00:49:11;;;;;;;1999.90;999.90;;;;;;;23.06;57.81;100957.59;5067267;28;20492;-71
2023/07/30 00:51:37;;;;;;;1999.90;999.90;;;;;;;23.47;56.56;100956.03;5045169;28;20025;-71
2023/07/30 00:54:02;;;;;;;1999.90;999.90;;;;;;;24.14;55.49;100956.22;5058166;28;20041;-71
2023/07/30 00:56:28;;;;;;;1999.90;999.90;;;;;;;23.83;55.78;100962.66;5065900;28;20475;-71
2023/07/30 00:58:55;;;;;;;1999.90;999.90;;;;;;;24.05;53.85;100963.00;5038246;28;20043;-71
2023/07/30 01:01:20;;;;;;;1999.90;999.90;;;;;;;23.91;54.48;100964.88;5060273;28;20033;-71
2023/07/30 01:03:45;;;;;;;1999.90;999.90;;;;;;;24.03;54.75;100959.59;5062415;28;20506;-71
2023/07/30 01:06:11;;;;;;;1999.90;999.90;;;;;;;23.85;55.56;100961.59;5063278;28;20074;-71
2023/07/30 01:08:36;;;;;;;1999.90;999.90;;;;;;;23.08;56.96;100971.69;5034568;28;20032;-70
2023/07/30 01:11:04;;;;;;;1999.90;999.90;;;;;;;23.12;57.14;100961.69;5039593;28;20312;-70
2023/07/30 01:13:30;;;;;;;1999.90;999.90;;;;;;;23.15;57.57;100967.72;5048602;28;20028;-71
2023/07/30 01:15:56;;;;;;;1999.90;999.90;;;;;;;23.67;55.40;100965.44;5051656;28;20036;-71
2023/07/30 01:18:21;;;;;;;1999.90;999.90;;;;;;;23.03;57.46;100973.78;5035315;28;20021;-70
2023/07/30 01:20:47;;;;;;;1999.90;999.90;;;;;;;22.72;59.99;100966.75;5069863;28;20099;-70
2023/07/30 01:23:12;;;;;;;1999.90;999.90;;;;;;;23.63;57.17;100972.78;5052081;28;20028;-70
2023/07/30 01:25:39;;;;;;;1999.90;999.90;;;;;;;22.91;58.52;100974.50;5051554;28;20024;-70
2023/07/30 01:28:08;;;;;;;1999.90;999.90;;;;;;;23.40;59.41;100966.22;5070903;28;20031;-71
2023/07/30 01:30:40;;;;;;;1999.90;999.90;;;;;;;23.38;58.22;100971.66;5071160;28;20077;-69
2023/07/30 01:33:06;;;;;;;1999.90;999.90;;;;;;;23.67;58.03;100968.09;5059128;28;20025;-71
2023/07/30 01:35:32;;;;;;;1999.90;999.90;;;;;;;23.06;59.09;100973.56;5048168;28;20031;-70
2023/07/30 01:37:58;;;;;;;1999.90;999.90;;;;;;;23.03;59.75;100973.78;5066892;28;20396;-70
2023/07/30 01:40:24;;;;;;;1999.90;999.90;;;;;;;23.78;57.47;100970.09;5058900;28;20156;-71
2023/07/30 01:42:50;;;;;;;1999.90;999.90;;;;;;;24.04;57.21;100969.31;5040920;28;20024;-70
2023/07/30 01:45:15;;;;;;;1999.90;999.90;;;;;;;23.85;57.29;100977.63;5070290;28;20029;-71
2023/07/30 01:47:41;;;;;;;1999.90;999.90;;;;;;;23.47;58.42;100972.03;5047673;28;20032;-71
2023/07/30 01:50:06;;;;;;;1999.90;999.90;;;;;;;23.25;59.94;100978.69;5055429;28;20052;-71
2023/07/30 01:52:32;;;;;;;1999.90;999.90;;;;;;;24.17;56.91;100972.03;5043528;28;20021;-71
2023/07/30 01:54:58;;;;;;;1999.90;999.90;;;;;;;23.64;59.85;100981.63;5041214;28;20492;-70
2023/07/30 01:57:24;;;;;;;1999.90;999.90;;;;;;;24.36;55.91;100982.38;5069971;28;20499;-71
2023/07/30 01:59:49;;;;;;;1999.90;999.90;;;;;;;24.02;56.31;100973.03;5079719;28;20020;-71
2023/07/30 02:02:15;;;;;;;1999.90;999.90;;;;;;;23.21;60.71;100974.50;5080251;28;20111;-71
2023/07/30 02:04:40;;;;;;;1999.90;999.90;;;;;;;23.44;60.35;100982.88;5077795;28;20028;-70
2023/07/30 02:07:06;;;;;;;1999.90;999.90;;;;;;;23.28;59.74;100985.63;5078196;28;20027;-71
2023/07/30 02:09:31;;;;;;;1999.90;999.90;;;;;;;23.58;59.22;100979.38;5085788;28;20016;-71
2023/07/30 02:11:56;;;;;;;1999.90;999.90;;;;;;;23.94;57.72;100986.03;5075199;28;20032;-71
2023/07/30 02:14:22;;;;;;;1999.90;999.90;;;;;;;24.13;57.37;100975.03;5089498;28;20084;-71
2023/07/30 02:16:47;;;;;;;1999.90;999.90;;;;;;;23.74;58.90;100980.13;5088539;28;20028;-71
2023/07/30 02:19:13;;;;;;;1999.90;999.90;;;;;;;24.35;56.10;100974.47;5079508;28;20024;-71
2023/07/30 02:21:42;;;;;;;1999.90;999.90;;;;;;;23.52;59.84;100975.25;5085368;28;20114;-71
2023/07/30 02:24:11;;;;;;;1999.90;999.90;;;;;;;23.27;61.50;100986.59;5082926;28;20052;-71
2023/07/30 02:26:38;;;;;;;1999.90;999.90;;;;;;;23.65;59.59;100973.53;5070552;28;20115;-70
2023/07/30 02:29:03;;;;;;;1999.90;999.90;;;;;;;23.78;59.20;100970.97;5073315;28;20092;-71
2023/07/30 02:31:29;;;;;;;1999.90;999.90;;;;;;;23.33;62.08;100970.22;5085962;28;20020;-71
2023/07/30 02:33:54;;;;;;;1999.90;999.90;;;;;;;23.78;60.62;100964.75;5086161;28;20086;-71
2023/07/30 02:36:20;;;;;;;1999.90;999.90;;;;;;;23.76;60.89;100964.84;5083766;28;20077;-71
2023/07/30 02:38:45;;;;;;;1999.90;999.90;;;;;;;23.00;62.67;100957.97;5080267;28;20031;-71
2023/07/30 02:41:11;;;;;;;1999.90;999.90;;;;;;;23.16;63.01;100969.44;5085760;28;20441;-71
2023/07/30 02:43:36;;;;;;;1999.90;999.90;;;;;;;23.55;62.33;100961.75;5082968;28;20483;-70
2023/07/30 02:46:01;;;;;;;1999.90;999.90;;;;;;;23.77;60.85;100966.56;5089537;28;20027;-71
2023/07/30 02:48:27;;;;;;;1999.90;999.90;;;;;;;22.79;64.04;100970.75;5082746;28;20021;-71
2023/07/30 02:50:52;;;;;;;1999.90;999.90;;;;;;;23.38;63.45;100962.78;5069269;28;20024;-71
2023/07/30 02:53:18;;;;;;;1999.90;999.90;;;;;;;22.78;65.62;100964.56;5087085;28;20019;-71
2023/07/30 02:55:43;;;;;;;1999.90;999.90;;;;;;;23.47;62.20;100962.22;5089245;28;20027;-71
2023/07/30 02:58:08;;;;;;;1999.90;999.90;;;;;;;23.57;62.48;100965.16;5051428;28;20032;-70
2023/07/30 03:00:37;;;;;;;1999.90;999.90;;;;;;;22.81;66.54;100968.88;5051397;28;20073;-71
2023/07/30 03:03:03;;;;;;;1999.90;999.90;;;;;;;23.23;63.81;100963.72;5062099;28;20036;-70
2023/07/30 03:05:28;;;;;;;1999.90;999.90;;;;;;;23.40;62.93;100966.22;5046898;28;20404;-71
2023/07/30 03:07:54;;;;;;;1999.90;999.90;;;;;;;23.52;62.89;100965.47;5046210;28;20033;-71
2023/07/30 03:10:19;;;;;;;1999.90;999.90;;;;;;;23.93;60.71;100965.63;5032858;28;20048;-71
2023/07/30 03:12:45;;;;;;;1999.90;999.90;;;;;;;23.50;62.66;100961.16;5061765;28;20017;-71
2023/07/30 03:15:10;;;;;;;1999.90;999.90;;;;;;;23.51;63.95;100966.41;5068342;28;20446;-71
2023/07/30 03:17:36;;;;;;;1999.90;999.90;;;;;;;23.87;61.13;100965.00;5050382;28;20048;-71
2023/07/30 03:20:02;;;;;;;1999.90;999.90;;;;;;;23.49;63.30;100960.31;5037531;28;20038;-71
2023/07/30 03:22:27;;;;;;;1999.90;999.90;;;;;;;23.89;61.54;100970.28;5063155;28;20479;-71
2023/07/30 03:24:52;;;;;;;1999.90;999.90;;;;;;;24.11;60.07;100967.13;5042150;28;20028;-71
2023/07/30 03:27:18;;;;;;;1999.90;999.90;;;;;;;23.53;61.74;100967.19;5068911;28;20032;-71
2023/07/30 03:29:43;;;;;;;1999.90;999.90;;;;;;;23.84;62.32;100965.22;5032879;28;20178;-70
2023/07/30 03:32:09;;;;;;;1999.90;999.90;;;;;;;23.51;63.42;100963.72;5050113;28;20036;-70
2023/07/30 03:34:34;;;;;;;1999.90;999.90;;;;;;;23.63;62.60;100966.56;5054586;28;20029;-71
2023/07/30 03:37:00;;;;;;;1999.90;999.90;;;;;;;23.61;64.42;100968.50;5064877;28;20521;-71
2023/07/30 03:39:26;;;;;;;1999.90;999.90;;;;;;;22.50;69.86;100970.66;5040169;28;20032;-71
2023/07/30 03:41:51;;;;;;;1999.90;999.90;;;;;;;23.14;66.17;100966.00;5042593;28;20454;-71
2023/07/30 03:44:17;;;;;;;1999.90;999.90;;;;;;;23.32;65.60;100957.84;5061774;28;20059;-71
2023/07/30 03:46:43;;;;;;;1999.90;999.90;;;;;;;23.94;62.90;100964.66;5063700;28;20078;-71
2023/07/30 03:49:09;;;;;;;1999.90;999.90;;;;;;;23.91;61.95;100965.72;5039078;28;20063;-71
2023/07/30 03:51:34;;;;;;;1999.90;999.90;;;;;;;23.71;62.39;100961.59;5049272;28;20024;-71
2023/07/30 03:54:00;;;;;;;1999.90;999.90;;;;;;;23.66;62.78;100969.06;5037140;28;20028;-71
2023/07/30 03:56:25;;;;;;;1999.90;999.90;;;;;;;23.11;66.38;100976.81;5065561;28;20048;-71
2023/07/30 03:58:51;;;;;;;1999.90;999.90;;;;;;;23.10;66.51;100975.09;5052073;28;20036;-71
2023/07/30 04:01:16;;;;;;;1999.90;999.90;;;;;;;23.37;65.38;100972.59;5038464;28;20075;-71
2023/07/30 04:03:42;;;;;;;1999.90;999.90;;;;;;;23.66;64.83;100967.25;5044387;28;20032;-71
2023/07/30 04:06:07;;;;;;;1999.90;999.90;;;;;;;22.57;70.50;100973.81;5038743;28;20071;-71
2023/07/30 04:08:35;;;;;;;1999.90;999.90;;;;;;;23.11;66.95;100976.81;5051217;28;20044;-71
2023/07/30 04:11:01;;;;;;;1999.90;999.90;;;;;;;22.80;70.82;100978.66;5068965;28;20037;-71
2023/07/30 04:13:26;;;;;;;1999.90;999.90;;;;;;;23.02;69.00;100978.22;5067918;28;20035;-71
2023/07/30 04:15:52;;;;;;;1999.90;999.90;;;;;;;23.94;63.89;100976.19;5045124;28;20021;-71
2023/07/30 04:18:17;;;;;;;1999.90;999.90;;;;;;;23.25;66.08;100984.00;5039878;28;20400;-71
2023/07/30 04:20:43;;;;;;;1999.90;999.90;;;;;;;23.82;63.70;100988.50;5034382;28;20041;-71
2023/07/30 04:23:08;;;;;;;1999.90;999.90;;;;;;;23.97;63.53;100983.16;5060686;28;20060;-71
2023/07/30 04:25:36;;;;;;;1999.90;999.90;;;;;;;22.60;69.88;100981.63;5045746;28;20031;-71
2023/07/30 04:28:02;;;;;;;1999.90;999.90;;;;;;;22.59;69.83;100990.59;5057889;28;20040;-71
2023/07/30 04:30:27;;;;;;;1999.90;999.90;;;;;;;23.07;70.09;100991.28;5045479;28;20497;-71
2023/07/30 04:32:53;;;;;;;1999.90;999.90;;;;;;;23.66;64.30;100985.94;5043947;28;20227;-71
2023/07/30 04:35:18;;;;;;;1999.90;999.90;;;;;;;24.06;63.99;100990.56;5063568;28;20434;-72
2023/07/30 04:37:43;;;;;;;1999.90;999.90;;;;;;;24.15;61.72;100989.13;5040430;28;20569;-71
2023/07/30 04:40:10;;;;;;;1999.90;999.90;;;;;;;22.81;68.37;100988.38;5047259;28;20039;-71
2023/07/30 04:42:36;;;;;;;1999.90;999.90;;;;;;;23.90;64.10;100987.19;5048476;28;20077;-69
2023/07/30 04:45:01;;;;;;;1999.90;999.90;;;;;;;23.67;64.86;100994.78;5051308;28;20024;-71
2023/07/30 04:47:26;;;;;;;1999.90;999.90;;;;;;;23.55;65.81;100991.09;5046171;28;20028;-71
2023/07/30 04:49:52;;;;;;;1999.90;999.90;;;;;;;23.39;65.61;101001.84;5058165;28;20107;-71
2023/07/30 04:52:18;;;;;;;1999.90;999.90;;;;;;;23.91;63.43;101002.25;5043763;28;20434;-71
2023/07/30 04:54:44;;;;;;;1999.90;999.90;;;;;;;24.21;61.76;100994.06;5068131;28;20035;-71
2023/07/30 04:57:09;;;;;;;1999.90;999.90;;;;;;;24.13;64.05;100999.06;5070652;28;20126;-71
2023/07/30 04:59:35;;;;;;;1999.90;999.90;;;;;;;23.09;68.61;101007.19;5083773;28;20035;-70
2023/07/30 05:02:01;;;;;;;1999.90;999.90;;;;;;;23.18;69.23;101007.53;5079974;28;20495;-71
2023/07/30 05:04:26;;;;;;;1999.90;999.90;;;;;;;23.44;67.81;101010.41;5080085;28;20032;-71
2023/07/30 05:06:52;;;;;;;1999.90;999.90;;;;;;;24.00;63.95;101006.97;5084175;28;20127;-71
2023/07/30 05:09:17;;;;;;;1999.90;999.90;;;;;;;23.75;64.08;101000.50;5087012;28;20513;-71
2023/07/30 05:11:42;;;;;;;1999.90;999.90;;;;;;;23.50;65.52;100998.50;5088752;28;20028;-70
2023/07/30 05:14:08;;;;;;;1999.90;999.90;;;;;;;23.83;64.53;100997.34;5083352;28;20059;-71
2023/07/30 05:16:37;;;;;;;1999.90;999.90;;;;;;;22.53;70.61;101003.31;5087402;28;20025;-71
2023/07/30 05:19:03;;;;;;;1999.90;999.90;;;;;;;22.90;69.61;101004.75;5089889;28;20489;-69
2023/07/30 05:21:28;;;;;;;1999.90;999.90;;;;;;;23.25;67.61;101005.34;5086709;28;20038;-71
2023/07/30 05:23:54;;;;;;;1999.90;999.90;;;;;;;24.27;63.80;101003.50;5083942;28;20082;-71
2023/07/30 05:26:19;;;;;;;1999.90;999.90;;;;;;;23.94;64.28;101010.03;5088477;28;20031;-71
2023/07/30 05:28:45;;;;;;;1999.90;999.90;;;;;;;23.08;67.77;101014.34;5076366;28;20036;-71
2023/07/30 05:31:10;;;;;;;1999.90;999.90;;;;;;;23.03;68.71;101016.41;5081464;28;20039;-71
2023/07/30 05:33:36;;;;;;;1999.90;999.90;;;;;;;23.62;64.06;101011.09;5080483;28;20036;-73
2023/07/30 05:36:01;;;;;;;1999.90;999.90;;;;;;;23.57;64.81;101010.50;5087945;28;20122;-71
2023/07/30 05:38:27;;;;;;;1999.90;999.90;;;;;;;24.17;63.72;101009.41;5076187;28;20374;-71
2023/07/30 05:40:52;;;;;;;1999.90;999.90;;;;;;;23.92;63.45;101014.59;5085109;28;20539;-71
2023/07/30 05:43:18;;;;;;;1999.90;999.90;;;;;;;23.33;65.73;101013.75;5089987;28;20032;-71
2023/07/30 05:45:43;;;;;;;1999.90;999.90;;;;;;;23.27;66.35;101016.75;5083482;28;20031;-71
2023/07/30 05:48:09;;;;;;;1999.90;999.90;;;;;;;23.76;65.71;101015.56;5084437;28;20029;-71
2023/07/30 05:50:34;;;;;;;1999.90;999.90;;;;;;;23.98;62.12;101008.91;5083289;28;20084;-71
2023/07/30 05:53:00;;;;;;;1999.90;999.90;;;;;;;23.93;64.13;101014.50;5089647;28;20092;-71
2023/07/30 05:55:25;;;;;;;1999.90;999.90;;;;;;;23.84;63.23;101023.94;5084891;28;20446;-70
2023/07/30 05:57:53;;;;;;;1999.90;999.90;;;;;;;22.95;67.46;101024.00;5086480;28;20504;-70
2023/07/30 06:00:18;;;;;;;1999.90;999.90;;;;;;;23.13;68.74;101014.94;5083913;28;20036;-71
2023/07/30 06:02:44;;;;;;;1999.90;999.90;;;;;;;23.53;65.97;101011.66;5085836;28;20085;-71
2023/07/30 06:05:09;;;;;;;1999.90;999.90;;;;;;;24.15;61.75;101021.16;5076597;28;20069;-71
2023/07/30 06:07:35;;;;;;;1999.90;999.90;;;;;;;24.30;61.05;101008.63;5077893;28;20032;-70
2023/07/30 06:10:00;;;;;;;1999.90;999.90;;;;;;;24.05;62.23;101015.56;5074415;28;20066;-71
2023/07/30 06:12:26;;;;;;;1999.90;999.90;;;;;;;22.81;67.18;100996.38;5070589;28;20207;-71
2023/07/30 06:14:51;;;;;;;1999.90;999.90;;;;;;;23.87;62.11;101006.88;5070023;28;20074;-71
2023/07/30 06:17:17;;;;;;;1999.90;999.90;;;;;;;24.44;60.26;101005.91;5085266;28;20474;-71
2023/07/30 06:19:42;;;;;;;1999.90;999.90;;;;;;;23.27;64.41;101006.09;5090306;28;20034;-70
2023/07/30 06:22:08;;;;;;;1999.90;999.90;;;;;;;23.47;65.26;101007.56;5091254;28;20032;-71
2023/07/30 06:24:36;;;;;;;1999.90;999.90;;;;;;;23.73;62.04;101005.09;5082238;28;20572;-71
2023/07/30 06:27:01;;;;;;;1999.90;999.90;;;;;;;24.22;59.33;101001.97;5078432;28;20043;-70
2023/07/30 06:29:27;;;;;;;1999.90;999.90;;;;;;;24.13;60.76;101007.91;5069539;28;20058;-71
2023/07/30 06:31:52;;;;;;;1999.90;999.90;;;;;;;22.79;65.44;101016.94;5068871;28;20043;-71
2023/07/30 06:34:18;;;;;;;1999.90;999.90;;;;;;;23.41;62.99;101010.63;5088671;28;20024;-72
2023/07/30 06:36:43;;;;;;;1999.90;999.90;;;;;;;24.46;58.17;101014.69;5072565;28;20073;-72
2023/07/30 06:39:09;;;;;;;1999.90;999.90;;;;;;;24.76;56.93;101010.97;5069156;28;20032;-72
2023/07/30 06:41:37;;;;;;;1999.90;999.90;;;;;;;23.30;64.46;101007.72;5072089;28;20033;-71
2023/07/30 06:44:02;;;;;;;1999.90;999.90;;;;;;;24.44;59.48;101015.72;5069851;28;20098;-71
2023/07/30 06:46:28;;;;;;;1999.90;999.90;;;;;;;25.13;56.71;101019.16;5071991;28;20028;-72
2023/07/30 06:48:53;;;;;;;1999.90;999.90;;;;;;;23.35;62.19;101013.63;5085387;28;20075;-71
2023/07/30 06:51:20;;;;;;;1999.90;999.90;;;;;;;24.14;60.23;101022.97;5089796;28;20067;-71
2023/07/30 06:53:45;;;;;;;1999.90;999.90;;;;;;;24.25;58.45;101027.63;5088717;28;20470;-71
2023/07/30 06:56:10;;;;;;;1999.90;999.90;;;;;;;23.98;59.21;101020.41;5077588;28;20146;-71
2023/07/30 06:58:36;;;;;;;1999.90;999.90;;;;;;;23.20;62.45;101024.31;5070833;28;20035;-72
2023/07/30 07:01:01;;;;;;;1999.90;999.90;;;;;;;22.29;67.15;101024.16;5075325;28;20404;-72
2023/07/30 07:03:27;;;;;;;1999.90;999.90;;;;;;;22.91;62.41;101012.66;5084080;28;20391;-72
2023/07/30 07:05:55;;;;;;;1999.90;999.90;;;;;;;23.79;61.29;101020.69;5079569;28;20336;-72
2023/07/30 07:08:20;;;;;;;1999.90;999.90;;;;;;;23.84;59.87;101023.94;5082252;28;20280;-72
2023/07/30 07:10:45;;;;;;;1999.90;999.90;;;;;;;24.56;57.36;101018.47;5076300;28;20407;-73
2023/07/30 07:13:14;;;;;;;1999.90;999.90;;;;;;;24.29;58.24;101028.25;5084960;28;20032;-71
2023/07/30 07:15:40;;;;;;;1999.90;999.90;;;;;;;24.47;56.95;101027.09;5079431;28;20472;-70
2023/07/30 07:18:06;;;;;;;1999.90;999.90;;;;;;;23.68;58.50;101028.50;5084682;28;20060;-73
2023/07/30 07:20:31;;;;;;;1999.90;999.90;;;;;;;23.88;57.52;101036.16;5089467;28;20447;-74
2023/07/30 07:22:57;;;;;;;1999.90;999.90;;;;;;;24.69;56.08;101031.03;5069141;28;20024;-73
2023/07/30 07:25:22;;;;;;;1999.90;999.90;;;;;;;24.95;55.35;101028.41;5075762;28;20067;-73
2023/07/30 07:27:48;;;;;;;1999.90;999.90;;;;;;;23.79;60.05;101036.69;5082779;28;20028;-72
2023/07/30 07:30:13;;;;;;;1999.90;999.90;;;;;;;24.20;58.38;101038.59;5079497;28;20027;-73
2023/07/30 07:32:39;;;;;;;1999.90;999.90;;;;;;;24.12;57.44;101032.88;5068641;28;20017;-72
2023/07/30 07:35:05;;;;;;;1999.90;999.90;;;;;;;24.99;56.78;101027.25;5077134;28;20039;-72
2023/07/30 07:37:32;;;;;;;1999.90;999.90;;;;;;;24.09;57.94;101041.09;5075266;28;20054;-73
2023/07/30 07:39:58;;;;;;;1999.90;999.90;;;;;;;24.59;57.13;101046.78;5075430;28;20031;-72
2023/07/30 07:42:24;;;;;;;1999.90;999.90;;;;;;;24.75;56.01;101057.34;5075563;28;20085;-72
2023/07/30 07:44:49;;;;;;;1999.90;999.90;;;;;;;24.26;56.83;101049.84;5087776;28;20024;-73
2023/07/30 07:47:15;;;;;;;1999.90;999.90;;;;;;;24.69;57.05;101055.09;5086984;28;20028;-72
2023/07/30 07:49:40;;;;;;;1999.90;999.90;;;;;;;24.43;56.12;101052.28;5072155;28;20040;-72
2023/07/30 07:52:06;;;;;;;1999.90;999.90;;;;;;;25.29;53.77;101050.19;5067944;28;20558;-72
2023/07/30 07:54:32;;;;;;;1999.90;999.90;;;;;;;24.22;54.83;101050.03;5068646;28;20035;-73
2023/07/30 07:56:57;;;;;;;1999.90;999.90;;;;;;;24.63;53.92;101058.16;5070485;28;20051;-72
2023/07/30 07:59:23;;;;;;;1999.90;999.90;;;;;;;25.51;51.16;101060.28;5078893;28;20043;-72
2023/07/30 08:01:49;;;;;;;1999.90;999.90;;;;;;;26.57;49.12;101066.13;5086066;28;20032;-72
2023/07/30 08:04:14;;;;;;;1999.90;999.90;;;;;;;25.58;50.04;101061.56;5068331;28;20032;-72
2023/07/30 08:06:40;;;;;;;1999.90;999.90;;;;;;;25.17;52.61;101063.44;5080295;28;20065;-72
2023/07/30 08:09:05;;;;;;;1999.90;999.90;;;;;;;25.69;50.57;101071.53;5086190;28;20036;-73
2023/07/30 08:11:31;;;;;;;1999.90;999.90;;;;;;;25.49;51.18;101068.44;5088498;28;20480;-72
2023/07/30 08:13:57;;;;;;;1999.90;999.90;;;;;;;25.67;50.21;101070.78;5078520;28;20040;-72
2023/07/30 08:16:22;;;;;;;1999.90;999.90;;;;;;;25.41;51.51;101068.09;5073655;28;20511;-73
2023/07/30 08:18:51;;;;;;;1999.90;999.90;;;;;;;25.94;50.71;101073.34;5071322;28;20062;-73
2023/07/30 08:21:17;;;;;;;1999.90;999.90;;;;;;;25.87;49.75;101067.56;5088686;28;20525;-70
2023/07/30 08:23:43;;;;;;;1999.90;999.90;;;;;;;25.37;49.95;101069.28;5089521;28;20072;-71
2023/07/30 08:26:09;;;;;;;1999.90;999.90;;;;;;;24.97;48.41;101069.28;5068279;28;20482;-70
2023/07/30 08:28:37;;;;;;;1999.90;999.90;;;;;;;24.37;47.68;101068.69;5070455;28;20126;-73
2023/07/30 08:31:03;;;;;;;1999.90;999.90;;;;;;;25.23;45.59;101063.00;5088833;28;20065;-73
2023/07/30 08:33:29;;;;;;;1999.90;999.90;;;;;;;25.46;44.65;101063.28;5071635;28;20384;-73
2023/07/30 08:35:58;;;;;;;1999.90;999.90;;;;;;;24.90;45.54;101068.84;5067786;28;20036;-70
2023/07/30 08:38:24;;;;;;;1999.90;999.90;;;;;;;25.36;44.04;101056.84;5087706;28;20448;-73
2023/07/30 08:40:50;;;;;;;1999.90;999.90;;;;;;;24.31;45.84;101064.59;5090417;28;20103;-73
2023/07/30 08:43:16;;;;;;;1999.90;999.90;;;;;;;25.14;45.04;101073.47;5092346;28;20037;-70
2023/07/30 08:45:41;;;;;;;1999.90;999.90;;;;;;;24.75;45.67;101072.53;5091534;28;20396;-73
2023/07/30 08:48:07;;;;;;;1999.90;999.90;;;;;;;25.29;44.18;101058.22;5077072;28;20051;-73
2023/07/30 08:50:36;;;;;;;1999.90;999.90;;;;;;;24.86;46.15;101070.84;5072149;28;20218;-71
2023/07/30 08:53:02;;;;;;;1999.90;999.90;;;;;;;24.67;45.99;101065.00;5071654;28;20025;-73
2023/07/30 08:55:29;;;;;;;1999.90;999.90;;;;;;;24.88;45.59;101068.06;5071684;28;20024;-73
2023/07/30 08:57:57;;;;;;;1999.90;999.90;;;;;;;24.45;46.27;101071.72;5081225;28;20079;-73
2023/07/30 09:00:25;;;;;;;1999.90;999.90;;;;;;;24.97;44.95;101075.47;5071956;28;20036;-73
2023/07/30 09:02:58;;;;;;;1999.90;999.90;;;;;;;26.19;43.64;101076.97;5072190;28;20098;-73
2023/07/30 09:05:25;;;;;;;1999.90;999.90;;;;;;;26.24;44.39;101086.38;5072971;28;20108;-73
2023/07/30 09:07:50;;;;;;;1999.90;999.90;;;;;;;25.36;46.09;101075.59;5080286;28;20129;-74
2023/07/30 09:10:16;;;;;;;1999.90;999.90;;;;;;;26.23;43.61;101084.66;5071120;28;20107;-74
2023/07/30 09:12:41;;;;;;;1999.90;999.90;;;;;;;27.16;42.55;101080.53;5071163;28;20021;-73
2023/07/30 09:15:07;;;;;;;1999.90;999.90;;;;;;;26.17;43.97;101079.75;5072266;28;20078;-73
2023/07/30 09:17:36;;;;;;;1999.90;999.90;;;;;;;26.78;42.75;101084.28;5079570;28;20127;-70
2023/07/30 09:20:03;;;;;;;1999.90;999.90;;;;;;;27.18;41.26;101088.47;5091670;28;20024;-71
2023/07/30 09:22:36;;;;;;;1999.90;999.90;;;;;;;26.96;40.84;101091.94;5092372;28;20031;-71
2023/07/30 09:25:02;;;;;;;1999.90;999.90;;;;;;;27.54;38.85;101084.78;5075313;28;20111;-71
2023/07/30 09:27:29;;;;;;;1999.90;999.90;;;;;;;27.97;37.95;101088.56;5084642;28;20024;-71
2023/07/30 09:29:59;;;;;;;1999.90;999.90;;;;;;;29.97;36.95;101085.50;5069996;28;20056;-71
2023/07/30 09:32:32;;;;;;;1999.90;999.90;;;;;;;30.54;34.29;101092.06;5077214;28;20026;-71
2023/07/30 09:35:10;;;;;;;1999.90;999.90;;;;;;;27.82;37.68;101096.06;5091050;28;20024;-69
2023/07/30 09:37:40;;;;;;;1999.90;999.90;;;;;;;28.11;38.12;101100.97;5089648;28;20051;-70
2023/07/30 09:40:08;;;;;;;1999.90;999.90;;;;;;;28.69;35.83;101092.69;5091326;28;20028;-70
2023/07/30 09:42:39;;;;;;;1999.90;999.90;;;;;;;29.00;36.05;101102.72;5089755;28;20056;-70
2023/07/30 09:45:07;;;;;;;1999.90;999.90;;;;;;;28.87;37.22;101103.75;5090995;28;20399;-71
2023/07/30 09:47:34;;;;;;;1999.90;999.90;;;;;;;27.86;38.34;101110.94;5082712;28;20395;-71
2023/07/30 09:49:59;;;;;;;1999.90;999.90;;;;;;;27.87;37.65;101109.94;5069829;28;20044;-71
2023/07/30 09:52:25;;;;;;;1999.90;999.90;;;;;;;27.54;37.64;101108.94;5086432;28;20028;-71
2023/07/30 09:54:52;;;;;;;1999.90;999.90;;;;;;;27.07;39.41;101116.09;5071419;28;20495;-71
2023/07/30 09:57:17;;;;;;;1999.90;999.90;;;;;;;29.02;36.86;101124.97;5075141;28;20047;-70
2023/07/30 09:59:43;;;;;;;1999.90;999.90;;;;;;;27.81;37.85;101126.56;5090490;28;20032;-71
2023/07/30 10:02:11;;;;;;;1999.90;999.90;;;;;;;27.97;38.41;101122.66;5090184;28;20028;-72
2023/07/30 10:04:42;;;;;;;1999.90;999.90;;;;;;;27.35;37.98;101130.94;5088548;28;20100;-70
2023/07/30 10:07:13;;;;;;;1999.90;999.90;;;;;;;27.79;37.44;101133.03;5086761;28;20024;-72
2023/07/30 10:09:45;;;;;;;1999.90;999.90;;;;;;;27.19;37.78;101143.81;5070090;28;20028;-72
2023/07/30 10:12:15;;;;;;;1999.90;999.90;;;;;;;27.32;37.38;101127.66;5072483;28;20475;-71
2023/07/30 10:14:42;;;;;;;1999.90;999.90;;;;;;;28.14;37.07;101115.97;5090135;28;20012;-71
2023/07/30 10:17:10;;;;;;;1999.90;999.90;;;;;;;27.92;38.54;101126.56;5090863;28;20039;-72
2023/07/30 10:19:35;;;;;;;1999.90;999.90;;;;;;;27.33;38.42;101142.78;5088525;28;20019;-71
2023/07/30 10:22:21;;;;;;;1999.90;999.90;;;;;;;26.47;39.07;101140.09;5090319;28;20031;-72
2023/07/30 10:25:02;;;;;;;1999.90;999.90;;;;;;;27.35;38.01;101141.66;5088941;28;20069;-72
2023/07/30 10:27:36;;;;;;;1999.90;999.90;;;;;;;26.85;38.27;101155.25;5089997;28;20442;-72
2023/07/30 10:30:22;;;;;;;1999.90;999.90;;;;;;;27.46;37.33;101140.03;5083794;28;20538;-72
2023/07/30 10:32:58;;;;;;;1999.90;999.90;;;;;;;27.23;36.81;101154.22;5082472;28;20063;-72
2023/07/30 10:35:46;;;;;;;1999.90;999.90;;;;;;;28.02;36.87;101144.66;5072398;28;20163;-72
2023/07/30 10:38:25;;;;;;;1999.90;999.90;;;;;;;27.47;36.67;101156.03;5070046;28;20021;-71
2023/07/30 10:41:12;;;;;;;1999.90;999.90;;;;;;;26.98;38.16;101154.31;5069029;28;20035;-72
2023/07/30 10:43:43;;;;;;;1999.90;999.90;;;;;;;27.13;38.02;101158.53;5069425;28;20029;-72